Aviation Digital Data Service (ADDS)

Output produced by METARs form (0936 UTC 13 August 2022)
found at http://www.aviationweather.gov/metar/data/
 
METAR text: RJSA 130900Z 24003KT 200V300 9999 FEW015 BKN020 24/21 Q1008
Conditions at: RJSA (AOMORI AIRPORT , JP) observed 0900 UTC 13 August 2022
Temperature: 24.0°C (75°F)
Dewpoint: 21.0°C (70°F) [RH = 83%]
Pressure (altimeter): 29.76 inches Hg (1008.0 mb)
Winds: from the WSW (240 degrees) at 3 MPH (3 knots; 1.5 m/s)
Visibility: 6 or more miles (10+ km)
Ceiling: 2000 feet AGL
Clouds: few clouds at 1500 feet AGL
broken clouds at 2000 feet AGL
Weather: no significant weather observed at this time

METAR text: RJSA 130800Z 28006KT 9999 FEW015 BKN020 25/21 Q1008
Conditions at: RJSA (AOMORI AIRPORT , JP) observed 0800 UTC 13 August 2022
Temperature: 25.0°C (77°F)
Dewpoint: 21.0°C (70°F) [RH = 79%]
Pressure (altimeter): 29.76 inches Hg (1008.0 mb)
Winds: from the W (280 degrees) at 7 MPH (6 knots; 3.1 m/s)
Visibility: 6 or more miles (10+ km)
Ceiling: 2000 feet AGL
Clouds: few clouds at 1500 feet AGL
broken clouds at 2000 feet AGL
Weather: no significant weather observed at this time

METAR text: RJSA 130700Z 30006KT 260V330 9999 FEW015 BKN020 27/22 Q1008
Conditions at: RJSA (AOMORI AIRPORT , JP) observed 0700 UTC 13 August 2022
Temperature: 27.0°C (81°F)
Dewpoint: 22.0°C (72°F) [RH = 74%]
Pressure (altimeter): 29.76 inches Hg (1008.0 mb)
Winds: from the WNW (300 degrees) at 7 MPH (6 knots; 3.1 m/s)
Visibility: 6 or more miles (10+ km)
Ceiling: 2000 feet AGL
Clouds: few clouds at 1500 feet AGL
broken clouds at 2000 feet AGL
Weather: no significant weather observed at this time

METAR text: RJSA 130600Z 31005KT 280V350 9999 FEW015 BKN020 27/23 Q1007
Conditions at: RJSA (AOMORI AIRPORT , JP) observed 0600 UTC 13 August 2022
Temperature: 27.0°C (81°F)
Dewpoint: 23.0°C (73°F) [RH = 79%]
Pressure (altimeter): 29.73 inches Hg (1007.0 mb)
Winds: from the NW (310 degrees) at 6 MPH (5 knots; 2.6 m/s)
Visibility: 6 or more miles (10+ km)
Ceiling: 2000 feet AGL
Clouds: few clouds at 1500 feet AGL
broken clouds at 2000 feet AGL
Weather: no significant weather observed at this time

METAR text: RJSA 130500Z 28007KT 250V330 9999 FEW015 BKN020 27/23 Q1007
Conditions at: RJSA (AOMORI AIRPORT , JP) observed 0500 UTC 13 August 2022
Temperature: 27.0°C (81°F)
Dewpoint: 23.0°C (73°F) [RH = 79%]
Pressure (altimeter): 29.73 inches Hg (1007.0 mb)
Winds: from the W (280 degrees) at 8 MPH (7 knots; 3.6 m/s)
Visibility: 6 or more miles (10+ km)
Ceiling: 2000 feet AGL
Clouds: few clouds at 1500 feet AGL
broken clouds at 2000 feet AGL
Weather: no significant weather observed at this time

METAR text: RJSA 130400Z 30005KT 260V360 9999 FEW020 BKN/// 28/23 Q1007
Conditions at: RJSA (AOMORI AIRPORT , JP) observed 0400 UTC 13 August 2022
Temperature: 28.0°C (82°F)
Dewpoint: 23.0°C (73°F) [RH = 74%]
Pressure (altimeter): 29.73 inches Hg (1007.0 mb)
Winds: from the WNW (300 degrees) at 6 MPH (5 knots; 2.6 m/s)
Visibility: 6 or more miles (10+ km)
Ceiling: at least 12,000 feet AGL
Clouds: few clouds at 2000 feet AGL
Weather: no significant weather observed at this time

METAR text: RJSA 130300Z 27007KT 230V300 9999 FEW010 SCT020 BKN/// 28/23 Q1007
Conditions at: RJSA (AOMORI AIRPORT , JP) observed 0300 UTC 13 August 2022
Temperature: 28.0°C (82°F)
Dewpoint: 23.0°C (73°F) [RH = 74%]
Pressure (altimeter): 29.73 inches Hg (1007.0 mb)
Winds: from the W (270 degrees) at 8 MPH (7 knots; 3.6 m/s)
Visibility: 6 or more miles (10+ km)
Ceiling: at least 12,000 feet AGL
Clouds: few clouds at 1000 feet AGL
scattered clouds at 2000 feet AGL
Weather: no significant weather observed at this time

METAR text: RJSA 130200Z 29005KT 250V320 9999 FEW010 SCT030 27/24 Q1007
Conditions at: RJSA (AOMORI AIRPORT , JP) observed 0200 UTC 13 August 2022
Temperature: 27.0°C (81°F)
Dewpoint: 24.0°C (75°F) [RH = 84%]
Pressure (altimeter): 29.73 inches Hg (1007.0 mb)
Winds: from the WNW (290 degrees) at 6 MPH (5 knots; 2.6 m/s)
Visibility: 6 or more miles (10+ km)
Ceiling: at least 12,000 feet AGL
Clouds: few clouds at 1000 feet AGL
scattered clouds at 3000 feet AGL
Weather: no significant weather observed at this time

METAR text: RJSA 130100Z 27006KT 240V310 9999 FEW005 SCT010 BKN025 26/23 Q1008
Conditions at: RJSA (AOMORI AIRPORT , JP) observed 0100 UTC 13 August 2022
Temperature: 26.0°C (79°F)
Dewpoint: 23.0°C (73°F) [RH = 84%]
Pressure (altimeter): 29.76 inches Hg (1008.0 mb)
Winds: from the W (270 degrees) at 7 MPH (6 knots; 3.1 m/s)
Visibility: 6 or more miles (10+ km)
Ceiling: 2500 feet AGL
Clouds: few clouds at 500 feet AGL
scattered clouds at 1000 feet AGL
broken clouds at 2500 feet AGL
Weather: no significant weather observed at this time

METAR text: RJSA 130040Z 28005KT 260V320 9999 FEW001 SCT005 BKN012 25/24 Q1008 RMK 1ST001 3ST005 7ST012 A2978
Conditions at: RJSA (AOMORI AIRPORT , JP) observed 0040 UTC 13 August 2022
Temperature: 25.0°C (77°F)
Dewpoint: 24.0°C (75°F) [RH = 94%]
Pressure (altimeter): 29.76 inches Hg (1008.0 mb)
Winds: from the W (280 degrees) at 6 MPH (5 knots; 2.6 m/s)
Visibility: 6 or more miles (10+ km)
Ceiling: 1200 feet AGL
Clouds: few clouds at 100 feet AGL
scattered clouds at 500 feet AGL
broken clouds at 1200 feet AGL
Weather: no significant weather observed at this time

METAR text: RJSA 130000Z 29005KT 7000 BCFG FEW001 SCT003 BKN008 24/23 Q1008
Conditions at: RJSA (AOMORI AIRPORT , JP) observed 0000 UTC 13 August 2022
Temperature: 24.0°C (75°F)
Dewpoint: 23.0°C (73°F) [RH = 94%]
Pressure (altimeter): 29.76 inches Hg (1008.0 mb)
Winds: from the WNW (290 degrees) at 6 MPH (5 knots; 2.6 m/s)
Visibility: 4 miles ( 7 km)
Ceiling: 800 feet AGL
Clouds: few clouds at 100 feet AGL
scattered clouds at 300 feet AGL
broken clouds at 800 feet AGL
Weather: BCFG  (patches of fog)

METAR text: RJSA 122328Z 30006KT 4000 BCFG BR FEW001 BKN003 BKN008 24/23 Q1007 RMK 1ST001 5ST003 7ST008 A2976 9999N-E
Conditions at: RJSA (AOMORI AIRPORT , JP) observed 2328 UTC 12 August 2022
Temperature: 24.0°C (75°F)
Dewpoint: 23.0°C (73°F) [RH = 94%]
Pressure (altimeter): 29.73 inches Hg (1007.0 mb)
Winds: from the WNW (300 degrees) at 7 MPH (6 knots; 3.1 m/s)
Visibility: 2.49 miles (4.01 km)
Ceiling: 300 feet AGL
Clouds: few clouds at 100 feet AGL
broken clouds at 300 feet AGL
broken clouds at 800 feet AGL
Weather: BCFG BR  (patches of fog, mist)

METAR text: RJSA 122300Z 27005KT 9999 PRFG FEW001 SCT003 BKN008 24/23 Q1007
Conditions at: RJSA (AOMORI AIRPORT , JP) observed 2300 UTC 12 August 2022
Temperature: 24.0°C (75°F)
Dewpoint: 23.0°C (73°F) [RH = 94%]
Pressure (altimeter): 29.73 inches Hg (1007.0 mb)
Winds: from the W (270 degrees) at 6 MPH (5 knots; 2.6 m/s)
Visibility: 6 or more miles (10+ km)
Ceiling: 800 feet AGL
Clouds: few clouds at 100 feet AGL
scattered clouds at 300 feet AGL
broken clouds at 800 feet AGL
Weather: PRFG  (partial fog)

METAR text: RJSA 122200Z 24005KT 9999 PRFG FEW001 SCT006 BKN012 23/23 Q1007
Conditions at: RJSA (AOMORI AIRPORT , JP) observed 2200 UTC 12 August 2022
Temperature: 23.0°C (73°F)
Dewpoint: 23.0°C (73°F) [RH = 100%]
Pressure (altimeter): 29.73 inches Hg (1007.0 mb)
Winds: from the WSW (240 degrees) at 6 MPH (5 knots; 2.6 m/s)
Visibility: 6 or more miles (10+ km)
Ceiling: 1200 feet AGL
Clouds: few clouds at 100 feet AGL
scattered clouds at 600 feet AGL
broken clouds at 1200 feet AGL
Weather: PRFG  (partial fog)

METAR text: RJSA 122140Z 23005KT 9999 PRFG FEW001 SCT006 BKN012 23/23 Q1007 RMK 1ST001 3ST006 6ST012 A2976 4000SW-NW
Conditions at: RJSA (AOMORI AIRPORT , JP) observed 2140 UTC 12 August 2022
Temperature: 23.0°C (73°F)
Dewpoint: 23.0°C (73°F) [RH = 100%]
Pressure (altimeter): 29.73 inches Hg (1007.0 mb)
Winds: from the SW (230 degrees) at 6 MPH (5 knots; 2.6 m/s)
Visibility: 6 or more miles (10+ km)
Ceiling: 1200 feet AGL
Clouds: few clouds at 100 feet AGL
scattered clouds at 600 feet AGL
broken clouds at 1200 feet AGL
Weather: PRFG  (partial fog)

METAR text: RJSA 121200Z VRB02KT 9999 FEW010 BKN040 BKN100 23/22 Q1007
Conditions at: RJSA (AOMORI AIRPORT , JP) observed 1200 UTC 12 August 2022
Temperature: 23.0°C (73°F)
Dewpoint: 22.0°C (72°F) [RH = 94%]
Pressure (altimeter): 29.73 inches Hg (1007.0 mb)
Winds: variable direction winds at 2 MPH (2 knots; 1.0 m/s)
Visibility: 6 or more miles (10+ km)
Ceiling: 4000 feet AGL
Clouds: few clouds at 1000 feet AGL
broken clouds at 4000 feet AGL
broken clouds at 10000 feet AGL
Weather: no significant weather observed at this time

METAR text: RJSA 121100Z VRB01KT 9999 FEW010 SCT060 BKN120 23/22 Q1007
Conditions at: RJSA (AOMORI AIRPORT , JP) observed 1100 UTC 12 August 2022
Temperature: 23.0°C (73°F)
Dewpoint: 22.0°C (72°F) [RH = 94%]
Pressure (altimeter): 29.73 inches Hg (1007.0 mb)
Winds: variable direction winds at 1 MPH (1 knots; 0.5 m/s)
Visibility: 6 or more miles (10+ km)
Ceiling: 12000 feet AGL
Clouds: few clouds at 1000 feet AGL
scattered clouds at 6000 feet AGL
broken clouds at 12000 feet AGL
Weather: no significant weather observed at this time

METAR text: RJSA 121000Z 15003KT 110V170 9999 FEW010 SCT040 BKN/// 24/22 Q1006
Conditions at: RJSA (AOMORI AIRPORT , JP) observed 1000 UTC 12 August 2022
Temperature: 24.0°C (75°F)
Dewpoint: 22.0°C (72°F) [RH = 89%]
Pressure (altimeter): 29.70 inches Hg (1006.0 mb)
Winds: from the SSE (150 degrees) at 3 MPH (3 knots; 1.5 m/s)
Visibility: 6 or more miles (10+ km)
Ceiling: at least 12,000 feet AGL
Clouds: few clouds at 1000 feet AGL
scattered clouds at 4000 feet AGL
Weather: no significant weather observed at this time

METAR text: RJSA 120900Z 21006KT 9999 FEW010 BKN050 BKN130 25/22 Q1006
Conditions at: RJSA (AOMORI AIRPORT , JP) observed 0900 UTC 12 August 2022
Temperature: 25.0°C (77°F)
Dewpoint: 22.0°C (72°F) [RH = 83%]
Pressure (altimeter): 29.70 inches Hg (1006.0 mb)
Winds: from the SSW (210 degrees) at 7 MPH (6 knots; 3.1 m/s)
Visibility: 6 or more miles (10+ km)
Ceiling: 5000 feet AGL
Clouds: few clouds at 1000 feet AGL
broken clouds at 5000 feet AGL
broken clouds at 13000 feet AGL
Weather: no significant weather observed at this time

METAR text: RJSA 120800Z 21004KT 9999 FEW010 BKN040 BKN150 26/23 Q1006
Conditions at: RJSA (AOMORI AIRPORT , JP) observed 0800 UTC 12 August 2022
Temperature: 26.0°C (79°F)
Dewpoint: 23.0°C (73°F) [RH = 84%]
Pressure (altimeter): 29.70 inches Hg (1006.0 mb)
Winds: from the SSW (210 degrees) at 5 MPH (4 knots; 2.1 m/s)
Visibility: 6 or more miles (10+ km)
Ceiling: 4000 feet AGL
Clouds: few clouds at 1000 feet AGL
broken clouds at 4000 feet AGL
broken clouds at 15000 feet AGL
Weather: no significant weather observed at this time

METAR text: RJSA 120700Z 23007KT 200V270 9999 FEW009 SCT040 BKN120 26/24 Q1006
Conditions at: RJSA (AOMORI AIRPORT , JP) observed 0700 UTC 12 August 2022
Temperature: 26.0°C (79°F)
Dewpoint: 24.0°C (75°F) [RH = 89%]
Pressure (altimeter): 29.70 inches Hg (1006.0 mb)
Winds: from the SW (230 degrees) at 8 MPH (7 knots; 3.6 m/s)
Visibility: 6 or more miles (10+ km)
Ceiling: 12000 feet AGL
Clouds: few clouds at 900 feet AGL
scattered clouds at 4000 feet AGL
broken clouds at 12000 feet AGL
Weather: no significant weather observed at this time

METAR text: RJSA 120600Z 26007KT 9999 FEW009 SCT025 BKN/// 27/24 Q1006
Conditions at: RJSA (AOMORI AIRPORT , JP) observed 0600 UTC 12 August 2022
Temperature: 27.0°C (81°F)
Dewpoint: 24.0°C (75°F) [RH = 84%]
Pressure (altimeter): 29.70 inches Hg (1006.0 mb)
Winds: from the W (260 degrees) at 8 MPH (7 knots; 3.6 m/s)
Visibility: 6 or more miles (10+ km)
Ceiling: at least 12,000 feet AGL
Clouds: few clouds at 900 feet AGL
scattered clouds at 2500 feet AGL
Weather: no significant weather observed at this time

METAR text: RJSA 120500Z 25009KT 9999 FEW015 SCT030 BKN/// 28/24 Q1005
Conditions at: RJSA (AOMORI AIRPORT , JP) observed 0500 UTC 12 August 2022
Temperature: 28.0°C (82°F)
Dewpoint: 24.0°C (75°F) [RH = 79%]
Pressure (altimeter): 29.68 inches Hg (1005.0 mb)
Winds: from the WSW (250 degrees) at 10 MPH (9 knots; 4.6 m/s)
Visibility: 6 or more miles (10+ km)
Ceiling: at least 12,000 feet AGL
Clouds: few clouds at 1500 feet AGL
scattered clouds at 3000 feet AGL
Weather: no significant weather observed at this time

METAR text: RJSA 120400Z 24007KT 9999 FEW010 SCT050 BKN/// 27/24 Q1005
Conditions at: RJSA (AOMORI AIRPORT , JP) observed 0400 UTC 12 August 2022
Temperature: 27.0°C (81°F)
Dewpoint: 24.0°C (75°F) [RH = 84%]
Pressure (altimeter): 29.68 inches Hg (1005.0 mb)
Winds: from the WSW (240 degrees) at 8 MPH (7 knots; 3.6 m/s)
Visibility: 6 or more miles (10+ km)
Ceiling: at least 12,000 feet AGL
Clouds: few clouds at 1000 feet AGL
scattered clouds at 5000 feet AGL
Weather: no significant weather observed at this time

METAR text: RJSA 120300Z 24006KT 9999 -SHRA FEW010 SCT025 BKN040 26/23 Q1006
Conditions at: RJSA (AOMORI AIRPORT , JP) observed 0300 UTC 12 August 2022
Temperature: 26.0°C (79°F)
Dewpoint: 23.0°C (73°F) [RH = 84%]
Pressure (altimeter): 29.70 inches Hg (1006.0 mb)
Winds: from the WSW (240 degrees) at 7 MPH (6 knots; 3.1 m/s)
Visibility: 6 or more miles (10+ km)
Ceiling: 4000 feet AGL
Clouds: few clouds at 1000 feet AGL
scattered clouds at 2500 feet AGL
broken clouds at 4000 feet AGL
Weather: -SHRA  (light rain showers)

METAR text: RJSA 120200Z 21011KT 9999 -SHRA FEW010 BKN050 BKN100 25/22 Q1005
Conditions at: RJSA (AOMORI AIRPORT , JP) observed 0200 UTC 12 August 2022
Temperature: 25.0°C (77°F)
Dewpoint: 22.0°C (72°F) [RH = 83%]
Pressure (altimeter): 29.68 inches Hg (1005.0 mb)
Winds: from the SSW (210 degrees) at 13 MPH (11 knots; 5.7 m/s)
Visibility: 6 or more miles (10+ km)
Ceiling: 5000 feet AGL
Clouds: few clouds at 1000 feet AGL
broken clouds at 5000 feet AGL
broken clouds at 10000 feet AGL
Weather: -SHRA  (light rain showers)

METAR text: RJSA 120100Z 20011KT 9999 FEW010 SCT050 BKN120 25/22 Q1005
Conditions at: RJSA (AOMORI AIRPORT , JP) observed 0100 UTC 12 August 2022
Temperature: 25.0°C (77°F)
Dewpoint: 22.0°C (72°F) [RH = 83%]
Pressure (altimeter): 29.68 inches Hg (1005.0 mb)
Winds: from the SSW (200 degrees) at 13 MPH (11 knots; 5.7 m/s)
Visibility: 6 or more miles (10+ km)
Ceiling: 12000 feet AGL
Clouds: few clouds at 1000 feet AGL
scattered clouds at 5000 feet AGL
broken clouds at 12000 feet AGL
Weather: no significant weather observed at this time

METAR text: RJSA 120000Z 23009KT 9999 FEW005 SCT050 BKN080 25/23 Q1004
Conditions at: RJSA (AOMORI AIRPORT , JP) observed 0000 UTC 12 August 2022
Temperature: 25.0°C (77°F)
Dewpoint: 23.0°C (73°F) [RH = 89%]
Pressure (altimeter): 29.65 inches Hg (1004.0 mb)
Winds: from the SW (230 degrees) at 10 MPH (9 knots; 4.6 m/s)
Visibility: 6 or more miles (10+ km)
Ceiling: 8000 feet AGL
Clouds: few clouds at 500 feet AGL
scattered clouds at 5000 feet AGL
broken clouds at 8000 feet AGL
Weather: no significant weather observed at this time

METAR text: RJSA 112300Z 24008KT 200V260 9999 -SHRA FEW002 SCT030 BKN050 24/23 Q1004
Conditions at: RJSA (AOMORI AIRPORT , JP) observed 2300 UTC 11 August 2022
Temperature: 24.0°C (75°F)
Dewpoint: 23.0°C (73°F) [RH = 94%]
Pressure (altimeter): 29.65 inches Hg (1004.0 mb)
Winds: from the WSW (240 degrees) at 9 MPH (8 knots; 4.1 m/s)
Visibility: 6 or more miles (10+ km)
Ceiling: 5000 feet AGL
Clouds: few clouds at 200 feet AGL
scattered clouds at 3000 feet AGL
broken clouds at 5000 feet AGL
Weather: -SHRA  (light rain showers)

METAR text: RJSA 112225Z 23011KT 9999 -SHRA FEW002 SCT030 BKN050 23/23 Q1004 RMK 1ST002 3CU030 7CU050 A2967
Conditions at: RJSA (AOMORI AIRPORT , JP) observed 2225 UTC 11 August 2022
Temperature: 23.0°C (73°F)
Dewpoint: 23.0°C (73°F) [RH = 100%]
Pressure (altimeter): 29.65 inches Hg (1004.0 mb)
Winds: from the SW (230 degrees) at 13 MPH (11 knots; 5.7 m/s)
Visibility: 6 or more miles (10+ km)
Ceiling: 5000 feet AGL
Clouds: few clouds at 200 feet AGL
scattered clouds at 3000 feet AGL
broken clouds at 5000 feet AGL
Weather: -SHRA  (light rain showers)

METAR text: RJSA 112200Z 21013KT 4000 SHRA BR FEW002 SCT020 BKN040 23/23 Q1004
Conditions at: RJSA (AOMORI AIRPORT , JP) observed 2200 UTC 11 August 2022
Temperature: 23.0°C (73°F)
Dewpoint: 23.0°C (73°F) [RH = 100%]
Pressure (altimeter): 29.65 inches Hg (1004.0 mb)
Winds: from the SSW (210 degrees) at 15 MPH (13 knots; 6.7 m/s)
Visibility: 2.49 miles (4.01 km)
Ceiling: 4000 feet AGL
Clouds: few clouds at 200 feet AGL
scattered clouds at 2000 feet AGL
broken clouds at 4000 feet AGL
Weather: SHRA BR  (rain showers, mist)

METAR text: RJSA 112140Z 23011KT 5000 SHRA BR FEW002 SCT020 BKN040 23/23 Q1004 RMK 1ST002 3CU020 6CU040 A2965
Conditions at: RJSA (AOMORI AIRPORT , JP) observed 2140 UTC 11 August 2022
Temperature: 23.0°C (73°F)
Dewpoint: 23.0°C (73°F) [RH = 100%]
Pressure (altimeter): 29.65 inches Hg (1004.0 mb)
Winds: from the SW (230 degrees) at 13 MPH (11 knots; 5.7 m/s)
Visibility: 3 miles ( 5 km)
Ceiling: 4000 feet AGL
Clouds: few clouds at 200 feet AGL
scattered clouds at 2000 feet AGL
broken clouds at 4000 feet AGL
Weather: SHRA BR  (rain showers, mist)

Forecast for: RJSA (AOMORI AIRPORT , JP)
Text: TAF RJSA 130505Z 1306/1412 27005KT 9999 FEW020 SCT030
Forecast period: 0600 to 2100 UTC 13 August 2022
Forecast type: FROM: standard forecast or significant change
Winds: from the W (270 degrees) at 6 MPH (5 knots; 2.6 m/s)
Visibility: 6 or more miles (10+ km)
Ceiling: at least 12,000 feet AGL
Clouds: few clouds at 2000 feet AGL
scattered clouds at 3000 feet AGL
Weather: no significant weather forecast for this period
Text: BECMG 1321/1400 02005KT
Forecast period: 2100 UTC 13 August 2022 to 0900 UTC 14 August 2022
Forecast type: BECOMING: Conditions expected to become as follows by 0000 UTC 14 August 2022
Winds: from the NNE (20 degrees) at 6 MPH (5 knots; 2.6 m/s)
Visibility: 6 or more miles (10+ km)
Ceiling: at least 12,000 feet AGL
Clouds: few clouds at 2000 feet AGL
scattered clouds at 3000 feet AGL
Weather: no significant weather forecast for this period
Text: BECMG 1409/1412 24004KT
Forecast period: 0900 to 1200 UTC 14 August 2022
Forecast type: BECOMING: Conditions expected to become as follows by 1200 UTC 14 August 2022
Winds: from the WSW (240 degrees) at 5 MPH (4 knots; 2.1 m/s)
Visibility: 6 or more miles (10+ km)
Ceiling: at least 12,000 feet AGL
Clouds: few clouds at 2000 feet AGL
scattered clouds at 3000 feet AGL
Weather: no significant weather forecast for this period